sensor_id;sensor_type;location;lat;lon;timestamp;pressure;altitude;pressure_sealevel;temperature;humidity
46379;BME280;32084;42.254;22.744;2024-01-16T00:01:09;93786.28;;;2.96;91.64
46379;BME280;32084;42.254;22.744;2024-01-16T00:03:43;93784.19;;;2.72;90.71
46379;BME280;32084;42.254;22.744;2024-01-16T00:06:18;93784.19;;;2.72;92.79
46379;BME280;32084;42.254;22.744;2024-01-16T00:08:53;93800.59;;;2.93;92.22
46379;BME280;32084;42.254;22.744;2024-01-16T00:11:27;93797.53;;;2.70;92.35
46379;BME280;32084;42.254;22.744;2024-01-16T00:13:58;93797.25;;;2.73;92.02
46379;BME280;32084;42.254;22.744;2024-01-16T00:16:33;93801.78;;;2.81;91.10
46379;BME280;32084;42.254;22.744;2024-01-16T00:19:07;93805.78;;;2.85;91.12
46379;BME280;32084;42.254;22.744;2024-01-16T00:21:44;93806.75;;;2.84;90.72
46379;BME280;32084;42.254;22.744;2024-01-16T00:24:22;93799.81;;;2.83;91.14
46379;BME280;32084;42.254;22.744;2024-01-16T00:26:56;93802.94;;;2.69;91.84
46379;BME280;32084;42.254;22.744;2024-01-16T00:29:30;93802.75;;;2.52;92.49
46379;BME280;32084;42.254;22.744;2024-01-16T00:32:05;93827.81;;;2.66;92.85
46379;BME280;32084;42.254;22.744;2024-01-16T00:34:39;93832.50;;;2.72;94.12
46379;BME280;32084;42.254;22.744;2024-01-16T00:37:15;93807.53;;;2.39;93.80
46379;BME280;32084;42.254;22.744;2024-01-16T00:39:49;93795.47;;;2.27;94.83
46379;BME280;32084;42.254;22.744;2024-01-16T00:42:23;93798.56;;;2.50;94.81
46379;BME280;32084;42.254;22.744;2024-01-16T00:44:58;93799.75;;;2.65;94.20
46379;BME280;32084;42.254;22.744;2024-01-16T00:47:32;93811.91;;;2.58;93.97
46379;BME280;32084;42.254;22.744;2024-01-16T00:50:07;93808.72;;;2.54;93.30
46379;BME280;32084;42.254;22.744;2024-01-16T00:52:41;93815.72;;;2.36;94.32
46379;BME280;32084;42.254;22.744;2024-01-16T00:55:15;93826.13;;;2.38;95.17
46379;BME280;32084;42.254;22.744;2024-01-16T00:57:51;93822.59;;;2.57;96.10
46379;BME280;32084;42.254;22.744;2024-01-16T01:00:25;93826.00;;;2.67;94.15
46379;BME280;32084;42.254;22.744;2024-01-16T01:03:00;93813.94;;;2.64;95.08
46379;BME280;32084;42.254;22.744;2024-01-16T01:05:34;93827.59;;;2.50;94.56
46379;BME280;32084;42.254;22.744;2024-01-16T01:08:07;93832.75;;;2.51;96.49
46379;BME280;32084;42.254;22.744;2024-01-16T01:10:41;93827.78;;;2.39;96.24
46379;BME280;32084;42.254;22.744;2024-01-16T01:13:16;93821.31;;;2.23;96.62
46379;BME280;32084;42.254;22.744;2024-01-16T01:15:50;93826.00;;;2.39;96.74
46379;BME280;32084;42.254;22.744;2024-01-16T01:18:24;93825.31;;;2.65;96.12
46379;BME280;32084;42.254;22.744;2024-01-16T01:20:59;93817.22;;;2.76;95.89
46379;BME280;32084;42.254;22.744;2024-01-16T01:23:33;93822.16;;;2.89;95.66
46379;BME280;32084;42.254;22.744;2024-01-16T01:26:05;93819.00;;;3.03;95.13
46379;BME280;32084;42.254;22.744;2024-01-16T01:28:40;93838.34;;;3.04;95.80
46379;BME280;32084;42.254;22.744;2024-01-16T01:31:14;93829.94;;;2.90;96.95
46379;BME280;32084;42.254;22.744;2024-01-16T01:33:49;93824.41;;;2.84;98.17
46379;BME280;32084;42.254;22.744;2024-01-16T01:36:23;93831.09;;;2.78;99.75
46379;BME280;32084;42.254;22.744;2024-01-16T01:38:57;93831.38;;;3.03;97.79
46379;BME280;32084;42.254;22.744;2024-01-16T01:41:32;93828.25;;;3.17;97.56
46379;BME280;32084;42.254;22.744;2024-01-16T01:44:06;93822.53;;;3.22;97.03
46379;BME280;32084;42.254;22.744;2024-01-16T01:46:40;93822.78;;;3.28;97.62
46379;BME280;32084;42.254;22.744;2024-01-16T01:49:16;93824.34;;;3.39;96.85
46379;BME280;32084;42.254;22.744;2024-01-16T01:51:50;93822.16;;;3.35;97.28
46379;BME280;32084;42.254;22.744;2024-01-16T01:54:25;93832.19;;;3.49;98.37
46379;BME280;32084;42.254;22.744;2024-01-16T01:57:00;93822.59;;;3.30;100.00
46379;BME280;32084;42.254;22.744;2024-01-16T01:59:32;93828.63;;;3.22;100.00
46379;BME280;32084;42.254;22.744;2024-01-16T02:02:07;93828.66;;;3.40;99.69
46379;BME280;32084;42.254;22.744;2024-01-16T02:04:41;93834.84;;;3.49;99.42
46379;BME280;32084;42.254;22.744;2024-01-16T02:07:17;93832.59;;;3.36;100.00
46379;BME280;32084;42.254;22.744;2024-01-16T02:09:52;93842.16;;;3.37;100.00
46379;BME280;32084;42.254;22.744;2024-01-16T02:12:24;93846.25;;;3.49;100.00
46379;BME280;32084;42.254;22.744;2024-01-16T02:14:59;93834.03;;;3.66;100.00
46379;BME280;32084;42.254;22.744;2024-01-16T02:17:33;93837.88;;;3.54;100.00
46379;BME280;32084;42.254;22.744;2024-01-16T02:20:07;93836.91;;;3.55;100.00
46379;BME280;32084;42.254;22.744;2024-01-16T02:22:41;93842.03;;;3.75;100.00
46379;BME280;32084;42.254;22.744;2024-01-16T02:25:16;93850.78;;;3.75;100.00
46379;BME280;32084;42.254;22.744;2024-01-16T02:27:51;93848.81;;;3.77;100.00
46379;BME280;32084;42.254;22.744;2024-01-16T02:30:25;93854.53;;;3.90;100.00
46379;BME280;32084;42.254;22.744;2024-01-16T02:32:59;93857.44;;;3.97;100.00
46379;BME280;32084;42.254;22.744;2024-01-16T02:35:34;93847.53;;;3.99;99.38
46379;BME280;32084;42.254;22.744;2024-01-16T02:38:08;93867.09;;;3.88;100.00
46379;BME280;32084;42.254;22.744;2024-01-16T02:40:43;93874.72;;;3.91;100.00
46379;BME280;32084;42.254;22.744;2024-01-16T02:43:17;93883.84;;;3.79;100.00
46379;BME280;32084;42.254;22.744;2024-01-16T02:45:51;93896.41;;;3.77;100.00
46379;BME280;32084;42.254;22.744;2024-01-16T02:48:26;93904.03;;;3.80;100.00
46379;BME280;32084;42.254;22.744;2024-01-16T02:51:01;93905.53;;;3.83;100.00
46379;BME280;32084;42.254;22.744;2024-01-16T02:53:35;93915.38;;;3.90;100.00
46379;BME280;32084;42.254;22.744;2024-01-16T02:56:09;93907.16;;;3.76;100.00
46379;BME280;32084;42.254;22.744;2024-01-16T02:58:44;93911.66;;;3.65;100.00
46379;BME280;32084;42.254;22.744;2024-01-16T03:01:18;93907.44;;;3.72;100.00
46379;BME280;32084;42.254;22.744;2024-01-16T03:03:53;93914.53;;;3.90;100.00
46379;BME280;32084;42.254;22.744;2024-01-16T03:06:27;93904.94;;;4.07;100.00
46379;BME280;32084;42.254;22.744;2024-01-16T03:09:02;93913.13;;;4.14;100.00
46379;BME280;32084;42.254;22.744;2024-01-16T03:11:37;93917.69;;;4.11;100.00
46379;BME280;32084;42.254;22.744;2024-01-16T03:14:11;93908.31;;;4.17;100.00
46379;BME280;32084;42.254;22.744;2024-01-16T03:16:44;93918.00;;;4.26;100.00
46379;BME280;32084;42.254;22.744;2024-01-16T03:19:18;93921.84;;;4.32;100.00
46379;BME280;32084;42.254;22.744;2024-01-16T03:21:53;93932.47;;;4.14;100.00
46379;BME280;32084;42.254;22.744;2024-01-16T03:24:27;93929.13;;;4.12;100.00
46379;BME280;32084;42.254;22.744;2024-01-16T03:27:02;93934.41;;;4.30;100.00
46379;BME280;32084;42.254;22.744;2024-01-16T03:29:34;93927.00;;;4.34;100.00
46379;BME280;32084;42.254;22.744;2024-01-16T03:32:08;93936.13;;;4.39;100.00
46379;BME280;32084;42.254;22.744;2024-01-16T03:34:42;93924.06;;;4.37;100.00
46379;BME280;32084;42.254;22.744;2024-01-16T03:37:16;93937.63;;;4.42;100.00
46379;BME280;32084;42.254;22.744;2024-01-16T03:39:51;93943.94;;;4.41;100.00
46379;BME280;32084;42.254;22.744;2024-01-16T03:42:25;93943.31;;;4.47;100.00
46379;BME280;32084;42.254;22.744;2024-01-16T03:45:00;93951.78;;;4.50;100.00
46379;BME280;32084;42.254;22.744;2024-01-16T03:47:34;93967.34;;;4.54;100.00
46379;BME280;32084;42.254;22.744;2024-01-16T03:50:08;93967.81;;;4.49;100.00
46379;BME280;32084;42.254;22.744;2024-01-16T03:52:42;93971.28;;;4.32;100.00
46379;BME280;32084;42.254;22.744;2024-01-16T03:55:16;93978.16;;;4.24;100.00
46379;BME280;32084;42.254;22.744;2024-01-16T03:57:51;93987.78;;;4.25;100.00
46379;BME280;32084;42.254;22.744;2024-01-16T04:00:25;93997.63;;;4.33;100.00
46379;BME280;32084;42.254;22.744;2024-01-16T04:02:59;93996.47;;;4.36;100.00
46379;BME280;32084;42.254;22.744;2024-01-16T04:05:34;93999.88;;;4.28;100.00
46379;BME280;32084;42.254;22.744;2024-01-16T04:08:08;94001.44;;;4.03;100.00
46379;BME280;32084;42.254;22.744;2024-01-16T04:10:43;93997.81;;;4.04;100.00
46379;BME280;32084;42.254;22.744;2024-01-16T04:13:17;94018.75;;;3.97;100.00
46379;BME280;32084;42.254;22.744;2024-01-16T04:15:52;94017.47;;;4.01;100.00
46379;BME280;32084;42.254;22.744;2024-01-16T04:18:26;94026.38;;;4.00;100.00
46379;BME280;32084;42.254;22.744;2024-01-16T04:20:59;94033.34;;;4.01;100.00
46379;BME280;32084;42.254;22.744;2024-01-16T04:23:33;94035.97;;;4.01;100.00
46379;BME280;32084;42.254;22.744;2024-01-16T04:26:07;94023.81;;;4.08;100.00
46379;BME280;32084;42.254;22.744;2024-01-16T04:28:39;94041.75;;;4.15;100.00
46379;BME280;32084;42.254;22.744;2024-01-16T04:31:11;94045.31;;;4.23;100.00
46379;BME280;32084;42.254;22.744;2024-01-16T04:33:44;94039.63;;;4.36;100.00
46379;BME280;32084;42.254;22.744;2024-01-16T04:36:16;94042.13;;;4.38;100.00
46379;BME280;32084;42.254;22.744;2024-01-16T04:38:49;94045.84;;;4.45;100.00
46379;BME280;32084;42.254;22.744;2024-01-16T04:41:21;94048.28;;;4.38;100.00
46379;BME280;32084;42.254;22.744;2024-01-16T04:43:55;94050.28;;;4.26;100.00
46379;BME280;32084;42.254;22.744;2024-01-16T04:46:27;94059.50;;;4.22;100.00
46379;BME280;32084;42.254;22.744;2024-01-16T04:49:02;94053.25;;;4.23;100.00
46379;BME280;32084;42.254;22.744;2024-01-16T04:51:35;94063.56;;;4.44;100.00
46379;BME280;32084;42.254;22.744;2024-01-16T04:54:10;94061.97;;;4.69;100.00
46379;BME280;32084;42.254;22.744;2024-01-16T04:56:42;94070.88;;;4.86;100.00
46379;BME280;32084;42.254;22.744;2024-01-16T04:59:14;94087.16;;;4.92;100.00
46379;BME280;32084;42.254;22.744;2024-01-16T05:01:47;94095.25;;;4.90;100.00
46379;BME280;32084;42.254;22.744;2024-01-16T05:04:21;94097.22;;;4.88;100.00
46379;BME280;32084;42.254;22.744;2024-01-16T05:06:55;94106.72;;;4.99;100.00
46379;BME280;32084;42.254;22.744;2024-01-16T05:09:27;94104.47;;;5.04;100.00
46379;BME280;32084;42.254;22.744;2024-01-16T05:12:01;94115.09;;;5.12;100.00
46379;BME280;32084;42.254;22.744;2024-01-16T05:14:33;94117.69;;;5.04;100.00
46379;BME280;32084;42.254;22.744;2024-01-16T05:17:05;94116.25;;;5.09;99.09
46379;BME280;32084;42.254;22.744;2024-01-16T05:19:38;94123.16;;;5.02;96.92
46379;BME280;32084;42.254;22.744;2024-01-16T05:22:11;94127.91;;;4.99;95.81
46379;BME280;32084;42.254;22.744;2024-01-16T05:24:42;94129.75;;;4.98;95.29
46379;BME280;32084;42.254;22.744;2024-01-16T05:27:14;94138.22;;;5.02;94.30
46379;BME280;32084;42.254;22.744;2024-01-16T05:29:48;94139.72;;;5.04;94.56
46379;BME280;32084;42.254;22.744;2024-01-16T05:32:20;94148.53;;;5.05;94.87
46379;BME280;32084;42.254;22.744;2024-01-16T05:34:53;94157.00;;;5.08;94.74
46379;BME280;32084;42.254;22.744;2024-01-16T05:37:25;94152.75;;;4.98;94.53
46379;BME280;32084;42.254;22.744;2024-01-16T05:39:58;94159.03;;;4.97;94.22
46379;BME280;32084;42.254;22.744;2024-01-16T05:42:30;94180.69;;;4.92;94.12
46379;BME280;32084;42.254;22.744;2024-01-16T05:45:02;94176.88;;;4.95;93.15
46379;BME280;32084;42.254;22.744;2024-01-16T05:47:34;94180.41;;;4.95;92.64
46379;BME280;32084;42.254;22.744;2024-01-16T05:53:26;94203.69;;;4.92;88.65
46379;BME280;32084;42.254;22.744;2024-01-16T05:56:00;94208.81;;;4.93;88.70
46379;BME280;32084;42.254;22.744;2024-01-16T05:58:34;94212.91;;;4.87;88.35
46379;BME280;32084;42.254;22.744;2024-01-16T06:01:12;94224.78;;;4.83;87.07
46379;BME280;32084;42.254;22.744;2024-01-16T06:03:47;94229.09;;;4.84;86.14
46379;BME280;32084;42.254;22.744;2024-01-16T06:06:20;94237.34;;;4.81;86.25
46379;BME280;32084;42.254;22.744;2024-01-16T06:08:54;94254.78;;;4.84;85.39
46379;BME280;32084;42.254;22.744;2024-01-16T06:11:32;94260.97;;;4.93;85.51
46379;BME280;32084;42.254;22.744;2024-01-16T06:14:04;94262.19;;;4.98;83.98
46379;BME280;32084;42.254;22.744;2024-01-16T06:16:38;94285.22;;;4.98;83.82
46379;BME280;32084;42.254;22.744;2024-01-16T06:19:08;94289.88;;;4.86;83.83
46379;BME280;32084;42.254;22.744;2024-01-16T06:21:42;94304.78;;;4.87;84.94
46379;BME280;32084;42.254;22.744;2024-01-16T06:24:16;94306.19;;;4.81;82.83
46379;BME280;32084;42.254;22.744;2024-01-16T06:26:49;94313.03;;;4.84;82.71
46379;BME280;32084;42.254;22.744;2024-01-16T06:29:23;94308.84;;;4.81;81.63
46379;BME280;32084;42.254;22.744;2024-01-16T06:31:55;94314.44;;;4.78;82.06
46379;BME280;32084;42.254;22.744;2024-01-16T06:34:28;94317.88;;;4.88;81.23
46379;BME280;32084;42.254;22.744;2024-01-16T06:37:00;94317.28;;;4.95;81.34
46379;BME280;32084;42.254;22.744;2024-01-16T06:39:33;94338.19;;;4.98;82.43
46379;BME280;32084;42.254;22.744;2024-01-16T06:42:07;94355.59;;;5.00;83.01
46379;BME280;32084;42.254;22.744;2024-01-16T06:44:40;94362.94;;;5.06;83.19
46379;BME280;32084;42.254;22.744;2024-01-16T06:47:14;94382.63;;;5.04;83.66
46379;BME280;32084;42.254;22.744;2024-01-16T06:49:47;94391.72;;;5.01;83.33
46379;BME280;32084;42.254;22.744;2024-01-16T06:52:19;94402.19;;;5.03;82.68
46379;BME280;32084;42.254;22.744;2024-01-16T06:54:52;94420.03;;;5.01;82.11
46379;BME280;32084;42.254;22.744;2024-01-16T06:57:24;94408.31;;;5.03;82.67
46379;BME280;32084;42.254;22.744;2024-01-16T06:59:58;94417.50;;;5.09;83.02
46379;BME280;32084;42.254;22.744;2024-01-16T07:02:31;94410.41;;;5.00;82.71
46379;BME280;32084;42.254;22.744;2024-01-16T07:05:03;94415.81;;;5.08;82.27
46379;BME280;32084;42.254;22.744;2024-01-16T07:07:36;94419.13;;;5.20;81.12
46379;BME280;32084;42.254;22.744;2024-01-16T07:10:10;94418.59;;;5.16;81.40
46379;BME280;32084;42.254;22.744;2024-01-16T07:12:52;94431.38;;;5.21;81.74
46379;BME280;32084;42.254;22.744;2024-01-16T07:15:25;94445.47;;;5.21;81.36
46379;BME280;32084;42.254;22.744;2024-01-16T07:17:59;94452.72;;;5.19;81.71
46379;BME280;32084;42.254;22.744;2024-01-16T07:20:34;94458.06;;;5.09;82.30
46379;BME280;32084;42.254;22.744;2024-01-16T07:23:08;94479.22;;;5.19;81.75
46379;BME280;32084;42.254;22.744;2024-01-16T07:25:42;94490.41;;;5.13;81.88
46379;BME280;32084;42.254;22.744;2024-01-16T07:28:17;94502.84;;;4.93;82.76
46379;BME280;32084;42.254;22.744;2024-01-16T07:30:52;94510.41;;;4.88;83.30
46379;BME280;32084;42.254;22.744;2024-01-16T07:33:26;94517.81;;;4.84;83.31
46379;BME280;32084;42.254;22.744;2024-01-16T07:36:00;94519.91;;;4.81;83.77
46379;BME280;32084;42.254;22.744;2024-01-16T07:38:32;94526.00;;;4.91;83.35
46379;BME280;32084;42.254;22.744;2024-01-16T07:41:06;94527.84;;;4.81;83.51
46379;BME280;32084;42.254;22.744;2024-01-16T07:43:40;94547.78;;;4.75;82.47
46379;BME280;32084;42.254;22.744;2024-01-16T07:46:15;94559.75;;;4.79;83.15
46379;BME280;32084;42.254;22.744;2024-01-16T07:48:48;94569.25;;;4.72;84.47
46379;BME280;32084;42.254;22.744;2024-01-16T07:51:23;94565.63;;;4.83;82.59
46379;BME280;32084;42.254;22.744;2024-01-16T07:54:03;94565.91;;;4.70;83.42
46379;BME280;32084;42.254;22.744;2024-01-16T07:56:30;94583.34;;;4.82;83.28
46379;BME280;32084;42.254;22.744;2024-01-16T07:58:55;94587.22;;;4.88;83.26
46379;BME280;32084;42.254;22.744;2024-01-16T08:01:21;94598.53;;;4.71;83.74
46379;BME280;32084;42.254;22.744;2024-01-16T08:03:47;94602.13;;;4.79;83.19
46379;BME280;32084;42.254;22.744;2024-01-16T08:06:13;94615.81;;;4.94;82.58
46379;BME280;32084;42.254;22.744;2024-01-16T08:08:39;94617.19;;;4.88;83.33
46379;BME280;32084;42.254;22.744;2024-01-16T08:11:05;94630.56;;;4.97;83.18
46379;BME280;32084;42.254;22.744;2024-01-16T08:13:31;94633.91;;;4.99;83.63
46379;BME280;32084;42.254;22.744;2024-01-16T08:15:57;94648.41;;;5.04;83.73
46379;BME280;32084;42.254;22.744;2024-01-16T08:18:23;94653.72;;;5.04;83.43
46379;BME280;32084;42.254;22.744;2024-01-16T08:20:49;94653.72;;;5.04;82.15
46379;BME280;32084;42.254;22.744;2024-01-16T08:23:15;94663.34;;;5.15;79.79
46379;BME280;32084;42.254;22.744;2024-01-16T08:25:41;94667.69;;;5.16;79.44
46379;BME280;32084;42.254;22.744;2024-01-16T08:28:07;94682.88;;;5.04;78.41
46379;BME280;32084;42.254;22.744;2024-01-16T08:30:33;94690.53;;;4.88;78.92
46379;BME280;32084;42.254;22.744;2024-01-16T08:32:59;94700.28;;;4.87;77.55
46379;BME280;32084;42.254;22.744;2024-01-16T08:35:25;94711.53;;;4.70;78.04
46379;BME280;32084;42.254;22.744;2024-01-16T08:37:51;94715.31;;;4.67;78.22
46379;BME280;32084;42.254;22.744;2024-01-16T08:40:17;94715.31;;;4.67;77.03
46379;BME280;32084;42.254;22.744;2024-01-16T08:42:43;94720.47;;;4.59;76.89
46379;BME280;32084;42.254;22.744;2024-01-16T08:45:09;94721.28;;;4.60;77.20
46379;BME280;32084;42.254;22.744;2024-01-16T08:47:35;94729.81;;;4.63;75.59
46379;BME280;32084;42.254;22.744;2024-01-16T08:50:01;94726.50;;;4.81;76.47
46379;BME280;32084;42.254;22.744;2024-01-16T08:52:28;94733.19;;;4.95;74.17
46379;BME280;32084;42.254;22.744;2024-01-16T08:54:54;94728.59;;;5.06;73.65
46379;BME280;32084;42.254;22.744;2024-01-16T08:57:20;94732.69;;;5.20;72.92
46379;BME280;32084;42.254;22.744;2024-01-16T08:59:46;94736.16;;;5.21;71.42
46379;BME280;32084;42.254;22.744;2024-01-16T09:02:11;94737.41;;;5.07;71.98
46379;BME280;32084;42.254;22.744;2024-01-16T09:04:38;94734.91;;;4.96;72.83
46379;BME280;32084;42.254;22.744;2024-01-16T09:07:04;94738.22;;;4.88;71.54
46379;BME280;32084;42.254;22.744;2024-01-16T09:09:30;94744.91;;;4.82;70.87
46379;BME280;32084;42.254;22.744;2024-01-16T09:11:56;94757.75;;;4.97;70.09
46379;BME280;32084;42.254;22.744;2024-01-16T09:14:23;94762.09;;;4.98;68.68
46379;BME280;32084;42.254;22.744;2024-01-16T09:16:49;94756.66;;;5.09;69.46
46379;BME280;32084;42.254;22.744;2024-01-16T09:19:16;94761.53;;;5.23;69.41
46379;BME280;32084;42.254;22.744;2024-01-16T09:21:42;94762.13;;;5.27;67.75
46379;BME280;32084;42.254;22.744;2024-01-16T09:24:08;94768.53;;;5.24;65.12
46379;BME280;32084;42.254;22.744;2024-01-16T09:26:34;94753.91;;;5.30;64.09
46379;BME280;32084;42.254;22.744;2024-01-16T09:29:00;94757.81;;;5.36;64.14
46379;BME280;32084;42.254;22.744;2024-01-16T09:31:26;94752.25;;;5.39;63.60
46379;BME280;32084;42.254;22.744;2024-01-16T09:33:52;94761.44;;;5.44;63.74
46379;BME280;32084;42.254;22.744;2024-01-16T09:36:18;94772.44;;;5.50;60.68
46379;BME280;32084;42.254;22.744;2024-01-16T09:38:44;94765.06;;;5.53;62.46
46379;BME280;32084;42.254;22.744;2024-01-16T09:41:10;94754.06;;;5.58;62.43
46379;BME280;32084;42.254;22.744;2024-01-16T09:43:36;94767.28;;;5.48;61.42
46379;BME280;32084;42.254;22.744;2024-01-16T09:46:02;94764.09;;;5.44;61.56
46379;BME280;32084;42.254;22.744;2024-01-16T09:48:30;94767.97;;;5.31;61.31
46379;BME280;32084;42.254;22.744;2024-01-16T09:50:57;94757.53;;;5.48;62.22
46379;BME280;32084;42.254;22.744;2024-01-16T09:53:23;94749.00;;;5.55;62.86
46379;BME280;32084;42.254;22.744;2024-01-16T09:55:49;94750.81;;;5.74;61.61
46379;BME280;32084;42.254;22.744;2024-01-16T09:58:16;94758.50;;;5.77;63.00
46379;BME280;32084;42.254;22.744;2024-01-16T10:00:43;94769.25;;;5.75;60.19
46379;BME280;32084;42.254;22.744;2024-01-16T10:03:12;94764.34;;;5.80;60.94
46379;BME280;32084;42.254;22.744;2024-01-16T10:05:40;94764.50;;;5.79;61.07
46379;BME280;32084;42.254;22.744;2024-01-16T10:08:07;94760.84;;;5.80;63.65
46379;BME280;32084;42.254;22.744;2024-01-16T10:10:33;94761.41;;;6.03;63.19
46379;BME280;32084;42.254;22.744;2024-01-16T10:12:59;94765.44;;;6.17;62.30
46379;BME280;32084;42.254;22.744;2024-01-16T10:15:25;94764.34;;;6.10;62.27
46379;BME280;32084;42.254;22.744;2024-01-16T10:17:51;94765.16;;;6.10;61.07
46379;BME280;32084;42.254;22.744;2024-01-16T10:20:30;94756.38;;;6.10;61.05
46379;BME280;32084;42.254;22.744;2024-01-16T10:22:57;94757.06;;;6.12;60.13
46379;BME280;32084;42.254;22.744;2024-01-16T10:25:24;94754.69;;;6.09;60.50
46379;BME280;32084;42.254;22.744;2024-01-16T10:28:02;94762.09;;;6.15;60.43
46379;BME280;32084;42.254;22.744;2024-01-16T10:30:28;94766.28;;;6.17;60.44
46379;BME280;32084;42.254;22.744;2024-01-16T10:32:54;94782.28;;;6.35;59.96
46379;BME280;32084;42.254;22.744;2024-01-16T10:35:20;94787.50;;;6.17;58.20
46379;BME280;32084;42.254;22.744;2024-01-16T10:37:50;94784.06;;;6.07;59.23
46379;BME280;32084;42.254;22.744;2024-01-16T10:40:20;94786.00;;;6.15;58.29
46379;BME280;32084;42.254;22.744;2024-01-16T10:42:46;94797.47;;;6.05;57.29
46379;BME280;32084;42.254;22.744;2024-01-16T10:45:22;94797.72;;;6.02;56.51
46379;BME280;32084;42.254;22.744;2024-01-16T10:47:49;94795.06;;;6.02;56.82
46379;BME280;32084;42.254;22.744;2024-01-16T10:50:26;94782.63;;;5.93;56.13
46379;BME280;32084;42.254;22.744;2024-01-16T10:52:52;94782.63;;;5.93;56.04
46379;BME280;32084;42.254;22.744;2024-01-16T10:55:21;94783.47;;;5.74;54.90
46379;BME280;32084;42.254;22.744;2024-01-16T10:57:48;94780.69;;;5.66;56.09
46379;BME280;32084;42.254;22.744;2024-01-16T11:00:16;94787.41;;;5.70;56.15
46379;BME280;32084;42.254;22.744;2024-01-16T11:02:47;94782.91;;;5.80;56.55
46379;BME280;32084;42.254;22.744;2024-01-16T11:05:15;94777.88;;;5.87;54.85
46379;BME280;32084;42.254;22.744;2024-01-16T11:07:42;94782.25;;;5.98;55.45
46379;BME280;32084;42.254;22.744;2024-01-16T11:10:09;94779.72;;;5.96;54.73
46379;BME280;32084;42.254;22.744;2024-01-16T11:12:39;94785.16;;;6.04;55.86
46379;BME280;32084;42.254;22.744;2024-01-16T11:15:06;94791.28;;;6.05;55.38
46379;BME280;32084;42.254;22.744;2024-01-16T11:17:33;94788.06;;;6.21;54.05
46379;BME280;32084;42.254;22.744;2024-01-16T11:20:03;94793.63;;;6.28;53.87
46379;BME280;32084;42.254;22.744;2024-01-16T11:22:38;94793.22;;;6.32;52.83
46379;BME280;32084;42.254;22.744;2024-01-16T11:25:11;94802.41;;;6.38;53.46
46379;BME280;32084;42.254;22.744;2024-01-16T11:27:38;94797.81;;;6.40;51.98
46379;BME280;32084;42.254;22.744;2024-01-16T11:30:08;94806.56;;;6.50;52.49
46379;BME280;32084;42.254;22.744;2024-01-16T11:32:38;94795.53;;;6.55;52.52
46379;BME280;32084;42.254;22.744;2024-01-16T11:35:09;94801.75;;;6.63;52.39
46379;BME280;32084;42.254;22.744;2024-01-16T11:37:36;94807.69;;;6.48;51.73
46379;BME280;32084;42.254;22.744;2024-01-16T11:42:48;94804.41;;;6.63;51.95
46379;BME280;32084;42.254;22.744;2024-01-16T11:48:08;94806.44;;;6.89;51.53
46379;BME280;32084;42.254;22.744;2024-01-16T11:50:34;94812.28;;;6.93;51.35
46379;BME280;32084;42.254;22.744;2024-01-16T11:53:00;94813.91;;;7.31;50.40
46379;BME280;32084;42.254;22.744;2024-01-16T11:55:30;94814.16;;;7.56;50.11
46379;BME280;32084;42.254;22.744;2024-01-16T12:00:31;94829.97;;;7.75;50.03
46379;BME280;32084;42.254;22.744;2024-01-16T12:03:00;94836.00;;;7.95;49.78
46379;BME280;32084;42.254;22.744;2024-01-16T12:05:28;94834.59;;;8.27;48.99
46379;BME280;32084;42.254;22.744;2024-01-16T12:07:54;94834.94;;;8.32;48.14
46379;BME280;32084;42.254;22.744;2024-01-16T12:10:22;94841.19;;;8.23;47.98
46379;BME280;32084;42.254;22.744;2024-01-16T12:12:49;94839.41;;;8.06;47.76
46379;BME280;32084;42.254;22.744;2024-01-16T12:15:16;94841.31;;;7.95;48.96
46379;BME280;32084;42.254;22.744;2024-01-16T12:17:55;94837.19;;;7.83;47.64
46379;BME280;32084;42.254;22.744;2024-01-16T12:20:22;94828.97;;;7.94;48.30
46379;BME280;32084;42.254;22.744;2024-01-16T12:22:55;94818.19;;;8.14;48.54
46379;BME280;32084;42.254;22.744;2024-01-16T12:25:21;94827.47;;;8.36;46.30
46379;BME280;32084;42.254;22.744;2024-01-16T12:27:54;94830.41;;;8.25;46.34
46379;BME280;32084;42.254;22.744;2024-01-16T12:30:20;94828.47;;;8.53;46.81
46379;BME280;32084;42.254;22.744;2024-01-16T12:32:46;94828.50;;;8.35;47.42
46379;BME280;32084;42.254;22.744;2024-01-16T12:35:12;94815.28;;;8.07;47.82
46379;BME280;32084;42.254;22.744;2024-01-16T12:37:38;94819.19;;;7.95;47.32
46379;BME280;32084;42.254;22.744;2024-01-16T12:40:05;94823.66;;;8.12;46.78
46379;BME280;32084;42.254;22.744;2024-01-16T12:42:32;94817.06;;;8.25;49.64
46379;BME280;32084;42.254;22.744;2024-01-16T12:44:58;94816.63;;;8.29;50.42
46379;BME280;32084;42.254;22.744;2024-01-16T12:47:25;94826.44;;;8.29;47.51
46379;BME280;32084;42.254;22.744;2024-01-16T12:49:51;94827.63;;;8.08;46.95
46379;BME280;32084;42.254;22.744;2024-01-16T12:52:17;94824.88;;;7.82;46.90
46379;BME280;32084;42.254;22.744;2024-01-16T12:54:44;94834.31;;;7.76;47.49
46379;BME280;32084;42.254;22.744;2024-01-16T12:57:10;94827.84;;;7.79;47.54
46379;BME280;32084;42.254;22.744;2024-01-16T12:59:42;94829.75;;;7.69;48.08
46379;BME280;32084;42.254;22.744;2024-01-16T13:02:08;94846.63;;;7.59;47.09
46379;BME280;32084;42.254;22.744;2024-01-16T13:04:34;94839.25;;;7.71;46.50
46379;BME280;32084;42.254;22.744;2024-01-16T13:07:01;94829.59;;;7.88;48.14
46379;BME280;32084;42.254;22.744;2024-01-16T13:09:27;94832.66;;;7.93;46.71
46379;BME280;32084;42.254;22.744;2024-01-16T13:11:54;94843.66;;;7.80;46.23
46379;BME280;32084;42.254;22.744;2024-01-16T13:14:21;94841.94;;;7.43;46.71
46379;BME280;32084;42.254;22.744;2024-01-16T13:16:51;94843.75;;;7.25;47.34
46379;BME280;32084;42.254;22.744;2024-01-16T13:19:20;94839.84;;;7.19;47.61
46379;BME280;32084;42.254;22.744;2024-01-16T13:21:46;94835.72;;;7.35;47.33
46379;BME280;32084;42.254;22.744;2024-01-16T13:24:12;94829.03;;;7.49;47.13
46379;BME280;32084;42.254;22.744;2024-01-16T13:26:39;94846.75;;;7.58;46.80
46379;BME280;32084;42.254;22.744;2024-01-16T13:29:05;94851.41;;;7.56;46.66